createdAt,value
2022-08-07T00:00:24.599Z,14.77
2022-08-07T00:02:53.813Z,15.13
2022-08-07T00:05:20.464Z,15.25
2022-08-07T00:07:47.191Z,15.53
2022-08-07T00:10:27.316Z,15.68
2022-08-07T00:12:59.825Z,15.21
2022-08-07T00:15:38.203Z,14.76
2022-08-07T00:18:19.220Z,14.44
2022-08-07T00:20:46.758Z,14.66
2022-08-07T00:23:15.360Z,14.95
2022-08-07T00:25:43.598Z,15.11
2022-08-07T00:28:12.488Z,15.13
2022-08-07T00:30:42.105Z,15.35
2022-08-07T00:33:08.523Z,14.18
2022-08-07T00:35:36.673Z,13.92
2022-08-07T00:38:03.381Z,13.98
2022-08-07T00:40:39.011Z,14.48
2022-08-07T00:43:10.022Z,14.39
2022-08-07T00:45:37.097Z,14.44
2022-08-07T00:48:07.822Z,14.16
2022-08-07T00:50:43.894Z,13.88
2022-08-07T00:53:17.322Z,14.05
2022-08-07T00:56:02.330Z,14.81
2022-08-07T00:58:30.241Z,14.30
2022-08-07T01:00:56.717Z,14.20
2022-08-07T01:03:54.718Z,14.90
2022-08-07T01:06:10.365Z,14.90
2022-08-07T01:08:38.919Z,13.87
2022-08-07T01:12:04.244Z,14.28
2022-08-07T01:13:56.551Z,14.69
2022-08-07T01:16:30.502Z,14.14
2022-08-07T01:18:57.194Z,14.42
2022-08-07T01:21:26.034Z,14.63
2022-08-07T01:23:53.447Z,14.19
2022-08-07T01:26:20.334Z,13.95
2022-08-07T01:28:48.357Z,13.99
2022-08-07T01:31:15.485Z,14.12
2022-08-07T01:33:55.119Z,14.00
2022-08-07T01:36:33.478Z,14.45
2022-08-07T01:39:09.416Z,14.59
2022-08-07T01:41:38.440Z,14.24
2022-08-07T01:44:05.010Z,14.59
2022-08-07T01:46:31.442Z,14.10
2022-08-07T01:48:59.840Z,14.71
2022-08-07T01:52:01.546Z,14.60
2022-08-07T01:54:19.343Z,14.78
2022-08-07T01:56:59.661Z,14.96
2022-08-07T01:59:31.091Z,14.55
2022-08-07T02:01:59.801Z,14.66
2022-08-07T02:04:30.390Z,13.89
2022-08-07T02:06:56.876Z,13.80
2022-08-07T02:09:52.258Z,14.31
2022-08-07T02:12:10.214Z,14.47
2022-08-07T02:14:44.520Z,14.69
2022-08-07T02:17:24.805Z,14.42
2022-08-07T02:20:06.688Z,14.48
2022-08-07T02:22:41.009Z,14.96
2022-08-07T02:25:17.163Z,14.07
2022-08-07T02:27:44.223Z,14.65
2022-08-07T02:30:18.823Z,14.24
2022-08-07T02:33:00.723Z,15.02
2022-08-07T02:36:28.289Z,15.53
2022-08-07T02:38:22.710Z,14.95
2022-08-07T02:40:56.012Z,14.03
2022-08-07T02:43:22.761Z,13.89
2022-08-07T02:45:59.177Z,14.24
2022-08-07T02:48:28.312Z,13.49
2022-08-07T02:50:55.289Z,14.37
2022-08-07T02:53:22.572Z,13.26
2022-08-07T02:56:04.340Z,14.13
2022-08-07T02:58:33.268Z,14.22
2022-08-07T03:03:51.000Z,14.29
2022-08-07T03:06:25.529Z,14.42
2022-08-07T03:08:53.042Z,14.17
2022-08-07T03:11:19.658Z,14.26
2022-08-07T03:13:51.809Z,15.19
2022-08-07T03:16:27.851Z,14.17
2022-08-07T03:18:54.615Z,13.26
2022-08-07T03:21:21.693Z,14.11
2022-08-07T03:24:18.302Z,14.26
2022-08-07T03:26:35.903Z,14.12
2022-08-07T03:29:11.186Z,14.38
2022-08-07T03:31:43.578Z,14.49
2022-08-07T03:34:18.827Z,15.16
2022-08-07T03:36:49.213Z,14.19
2022-08-07T03:39:16.045Z,14.17
2022-08-07T03:41:47.656Z,14.38
2022-08-07T03:44:21.792Z,14.22
2022-08-07T03:47:13.693Z,14.32
2022-08-07T03:49:41.074Z,14.35
2022-08-07T03:52:07.871Z,14.13
2022-08-07T03:54:54.454Z,13.19
2022-08-07T03:58:33.100Z,13.07
2022-08-07T04:00:10.594Z,12.96
2022-08-07T04:02:37.063Z,13.28
2022-08-07T04:05:07.909Z,13.33
2022-08-07T04:07:41.684Z,13.66
2022-08-07T04:10:15.589Z,14.16
2022-08-07T04:12:45.990Z,14.55
2022-08-07T04:15:13.721Z,13.72
2022-08-07T04:18:57.907Z,13.90
2022-08-07T04:20:27.996Z,13.06
2022-08-07T04:23:01.823Z,13.70
2022-08-07T04:25:39.087Z,13.48
2022-08-07T04:28:06.070Z,13.66
2022-08-07T04:30:43.818Z,13.09
2022-08-07T04:33:21.260Z,12.97
2022-08-07T04:35:50.399Z,13.38
2022-08-07T04:38:17.735Z,13.99
2022-08-07T04:40:52.295Z,13.66
2022-08-07T04:43:19.692Z,14.33
2022-08-07T04:46:00.658Z,14.02
2022-08-07T04:48:28.447Z,13.19
2022-08-07T04:50:55.504Z,14.14
2022-08-07T04:53:40.303Z,14.00
2022-08-07T04:58:16.148Z,13.94
2022-08-07T04:59:18.379Z,14.66
2022-08-07T05:04:31.821Z,14.33
2022-08-07T05:06:58.239Z,15.10
2022-08-07T05:09:28.094Z,14.05
2022-08-07T05:12:10.834Z,14.57
2022-08-07T05:14:56.172Z,14.15
2022-08-07T05:17:51.990Z,14.06
2022-08-07T05:20:16.589Z,13.89
2022-08-07T05:22:45.391Z,14.50
2022-08-07T05:25:25.844Z,15.08
2022-08-07T05:28:03.576Z,14.49
2022-08-07T05:30:47.131Z,15.10
2022-08-07T05:33:15.440Z,15.25
2022-08-07T05:35:44.556Z,14.08
2022-08-07T05:38:11.041Z,14.02
2022-08-07T05:40:37.707Z,14.13
2022-08-07T05:43:17.263Z,14.34
2022-08-07T05:45:46.771Z,14.93
2022-08-07T05:48:14.412Z,15.15
2022-08-07T05:50:42.966Z,15.08
2022-08-07T05:54:12.815Z,14.12
2022-08-07T05:56:02.129Z,14.53
2022-08-07T05:58:36.549Z,15.27
2022-08-07T06:01:05.134Z,13.86
2022-08-07T06:03:53.500Z,14.24
2022-08-07T06:06:19.582Z,13.78
2022-08-07T06:08:46.745Z,14.18
2022-08-07T06:11:13.267Z,13.93
2022-08-07T06:14:12.148Z,13.62
2022-08-07T06:16:29.119Z,14.28
2022-08-07T06:18:56.083Z,13.42
2022-08-07T06:22:15.415Z,13.49
2022-08-07T06:24:45.839Z,13.29
2022-08-07T06:26:55.446Z,13.03
2022-08-07T06:29:21.874Z,12.78
2022-08-07T06:31:51.285Z,13.27
2022-08-07T06:34:19.874Z,13.73
2022-08-07T06:36:47.539Z,13.95
2022-08-07T06:40:18.365Z,14.40
2022-08-07T06:42:05.126Z,14.83
2022-08-07T06:44:34.044Z,14.50
2022-08-07T06:47:12.172Z,14.82
2022-08-07T06:49:52.116Z,15.12
2022-08-07T06:52:32.000Z,15.10
2022-08-07T06:55:32.080Z,15.39
2022-08-07T06:57:50.941Z,15.28
2022-08-07T07:00:20.027Z,14.41
2022-08-07T07:02:53.259Z,14.59
2022-08-07T07:06:05.247Z,15.25
2022-08-07T07:08:12.319Z,15.24
2022-08-07T07:10:47.589Z,14.18
2022-08-07T07:13:43.635Z,15.23
2022-08-07T07:16:10.164Z,14.57
2022-08-07T07:18:47.943Z,15.68
2022-08-07T07:21:19.700Z,15.91
2022-08-07T07:24:08.487Z,15.09
2022-08-07T07:26:36.971Z,15.92
2022-08-07T07:29:57.527Z,15.19
2022-08-07T07:31:50.707Z,14.96
2022-08-07T07:34:17.150Z,14.36
2022-08-07T07:36:43.560Z,15.28
2022-08-07T07:39:14.689Z,14.95
2022-08-07T07:42:02.043Z,14.42
2022-08-07T07:44:27.754Z,14.86
2022-08-07T07:46:59.455Z,15.05
2022-08-07T07:50:35.337Z,14.82
2022-08-07T07:52:26.747Z,14.65
2022-08-07T07:54:54.362Z,14.86
2022-08-07T07:57:21.073Z,15.75
2022-08-07T08:00:07.413Z,15.44
2022-08-07T08:02:35.896Z,16.27
2022-08-07T08:05:02.336Z,15.80
2022-08-07T08:07:35.767Z,16.02
2022-08-07T08:10:08.992Z,16.54
2022-08-07T08:12:52.303Z,16.79
2022-08-07T08:15:25.549Z,15.83
2022-08-07T08:17:57.936Z,16.20
2022-08-07T08:20:31.826Z,15.48
2022-08-07T08:22:58.834Z,16.02
2022-08-07T08:25:42.027Z,15.83
2022-08-07T08:28:09.563Z,16.39
2022-08-07T08:30:37.527Z,16.95
2022-08-07T08:33:16.057Z,15.46
2022-08-07T08:35:49.679Z,16.82
2022-08-07T08:38:17.095Z,16.20
2022-08-07T08:40:43.819Z,16.21
2022-08-07T08:43:13.357Z,16.61
2022-08-07T08:45:59.028Z,16.39
2022-08-07T08:48:28.509Z,16.17
2022-08-07T08:50:59.136Z,16.42
2022-08-07T08:53:30.707Z,17.21
2022-08-07T08:55:58.993Z,16.11
2022-08-07T08:58:28.963Z,17.01
2022-08-07T09:00:56.454Z,16.83
2022-08-07T09:05:50.274Z,16.91
2022-08-07T09:08:24.249Z,16.94
2022-08-07T09:10:55.475Z,16.79
2022-08-07T09:13:36.998Z,17.08
2022-08-07T09:16:23.679Z,16.92
2022-08-07T09:18:58.275Z,17.25
2022-08-07T09:21:33.921Z,16.71
2022-08-07T09:24:32.970Z,17.03
2022-08-07T09:26:58.606Z,17.97
2022-08-07T09:30:03.990Z,17.57
2022-08-07T09:32:18.847Z,16.51
2022-08-07T09:34:53.936Z,17.03
2022-08-07T09:37:20.878Z,16.33
2022-08-07T09:40:07.297Z,16.39
2022-08-07T09:42:35.337Z,15.98
2022-08-07T09:46:11.264Z,16.02
2022-08-07T09:47:58.991Z,16.42
2022-08-07T09:50:30.310Z,17.23
2022-08-07T09:52:56.919Z,17.03
2022-08-07T09:55:29.713Z,17.53
2022-08-07T09:58:09.809Z,17.34
2022-08-07T10:00:38.053Z,17.49
2022-08-07T10:03:08.423Z,18.19
2022-08-07T10:06:00.282Z,18.35
2022-08-07T10:08:29.213Z,18.57
2022-08-07T10:11:59.904Z,18.18
2022-08-07T10:14:00.552Z,18.98
2022-08-07T10:16:28.835Z,18.17
2022-08-07T10:18:55.419Z,18.82
2022-08-07T10:21:50.597Z,19.33
2022-08-07T10:24:09.957Z,18.59
2022-08-07T10:26:36.530Z,18.32
2022-08-07T10:29:03.003Z,18.73
2022-08-07T10:31:31.390Z,18.84
2022-08-07T10:34:05.572Z,19.56
2022-08-07T10:36:40.785Z,20.23
2022-08-07T10:39:07.551Z,19.46
2022-08-07T10:41:51.587Z,19.54
2022-08-07T10:44:33.836Z,19.02
2022-08-07T10:47:05.804Z,18.89
2022-08-07T10:49:45.317Z,18.72
2022-08-07T10:52:17.612Z,18.04
2022-08-07T10:54:53.224Z,18.35
2022-08-07T10:57:34.554Z,18.80
2022-08-07T11:00:01.951Z,19.14
2022-08-07T11:02:33.038Z,19.10
2022-08-07T11:05:01.710Z,19.25
2022-08-07T11:07:59.044Z,19.39
2022-08-07T11:10:27.355Z,19.08
2022-08-07T11:13:02.259Z,19.03
2022-08-07T11:15:31.842Z,18.60
2022-08-07T11:18:03.354Z,18.67
2022-08-07T11:20:32.919Z,18.31
2022-08-07T11:22:59.624Z,18.40
2022-08-07T11:25:28.353Z,18.08
2022-08-07T11:28:02.664Z,18.20
2022-08-07T11:30:41.352Z,19.51
2022-08-07T11:33:14.269Z,19.01
2022-08-07T11:35:59.831Z,18.97
2022-08-07T11:38:28.168Z,18.95
2022-08-07T11:40:55.062Z,19.54
2022-08-07T11:43:41.201Z,20.01
2022-08-07T11:46:09.287Z,20.86
2022-08-07T11:48:36.257Z,20.56
2022-08-07T11:51:04.030Z,20.45
2022-08-07T11:53:35.911Z,20.14
2022-08-07T11:56:25.317Z,19.12
2022-08-07T11:58:49.666Z,18.94
2022-08-07T12:01:20.319Z,20.16
2022-08-07T12:03:51.185Z,19.65
2022-08-07T12:06:39.808Z,19.17
2022-08-07T12:09:05.355Z,18.90
2022-08-07T12:11:34.091Z,19.84
2022-08-07T12:14:09.807Z,19.85
2022-08-07T12:16:38.019Z,20.08
2022-08-07T12:19:06.222Z,19.73
2022-08-07T12:21:55.599Z,20.32
2022-08-07T12:24:37.359Z,20.21
2022-08-07T12:27:13.296Z,19.75
2022-08-07T12:29:43.176Z,19.75
2022-08-07T12:32:13.105Z,18.79
2022-08-07T12:34:39.807Z,19.91
2022-08-07T12:37:16.463Z,20.53
2022-08-07T12:39:57.525Z,20.73
2022-08-07T12:42:28.047Z,20.87
2022-08-07T12:44:55.143Z,20.05
2022-08-07T12:47:27.150Z,20.62
2022-08-07T12:50:04.672Z,21.38
2022-08-07T12:52:34.157Z,21.15
2022-08-07T12:55:05.191Z,20.58
2022-08-07T12:58:01.238Z,20.26
2022-08-07T13:00:33.021Z,20.25
2022-08-07T13:03:07.104Z,21.46
2022-08-07T13:06:04.013Z,21.11
2022-08-07T13:08:20.809Z,21.96
2022-08-07T13:10:51.962Z,22.55
2022-08-07T13:13:47.072Z,21.53
2022-08-07T13:16:06.588Z,22.44
2022-08-07T13:18:34.214Z,22.91
2022-08-07T13:21:00.775Z,22.88
2022-08-07T13:24:01.195Z,23.04
2022-08-07T13:26:25.593Z,22.72
2022-08-07T13:28:57.952Z,22.25
2022-08-07T13:31:25.116Z,21.91
2022-08-07T13:34:30.970Z,22.44
2022-08-07T13:36:45.654Z,22.39
2022-08-07T13:39:28.249Z,22.79
2022-08-07T13:42:01.356Z,23.08
2022-08-07T13:44:34.651Z,21.89
2022-08-07T13:47:04.818Z,21.54
2022-08-07T13:50:32.657Z,20.74
2022-08-07T13:52:35.056Z,21.44
2022-08-07T13:55:04.832Z,22.16
2022-08-07T13:57:38.456Z,20.97
2022-08-07T14:00:05.318Z,20.58
2022-08-07T14:02:39.585Z,20.20
2022-08-07T14:08:06.118Z,20.58
2022-08-07T14:10:34.640Z,21.24
2022-08-07T14:13:09.157Z,21.86
2022-08-07T14:15:36.057Z,22.18
2022-08-07T14:18:15.989Z,22.58
2022-08-07T14:20:55.022Z,22.18
2022-08-07T14:23:31.401Z,21.83
2022-08-07T14:26:08.433Z,20.82
2022-08-07T14:28:57.266Z,19.60
2022-08-07T14:31:21.572Z,19.51
2022-08-07T14:33:50.199Z,21.28
2022-08-07T14:36:16.701Z,22.02
2022-08-07T14:38:50.657Z,22.54
2022-08-07T14:41:17.175Z,22.63
2022-08-07T14:44:08.070Z,20.22
2022-08-07T14:46:51.553Z,21.33
2022-08-07T14:49:58.329Z,21.40
2022-08-07T14:52:10.533Z,22.32
2022-08-07T14:54:42.015Z,22.37
2022-08-07T14:57:09.345Z,21.79
2022-08-07T15:00:05.751Z,21.48
2022-08-07T15:05:19.988Z,19.59
2022-08-07T15:07:52.305Z,19.57
2022-08-07T15:10:19.637Z,19.71
2022-08-07T15:12:46.175Z,19.53
2022-08-07T15:15:22.705Z,19.45
2022-08-07T15:17:55.309Z,19.35
2022-08-07T15:23:20.424Z,18.79
2022-08-07T15:25:50.027Z,20.28
2022-08-07T15:28:34.638Z,19.12
2022-08-07T15:31:06.505Z,18.90
2022-08-07T15:33:34.005Z,19.05
2022-08-07T15:38:58.729Z,18.41
2022-08-07T15:44:12.876Z,18.92
2022-08-07T15:46:48.562Z,19.11
2022-08-07T15:49:19.079Z,19.68
2022-08-07T15:54:24.419Z,19.03
2022-08-07T15:56:52.884Z,17.88
2022-08-07T15:59:19.339Z,18.00
2022-08-07T16:01:46.044Z,18.06
2022-08-07T16:04:28.999Z,18.80
2022-08-07T16:06:58.647Z,19.33
2022-08-07T16:09:40.971Z,18.25
2022-08-07T16:12:12.219Z,18.16
2022-08-07T16:14:38.808Z,18.41
2022-08-07T16:17:15.095Z,18.28
2022-08-07T16:19:58.511Z,18.55
2022-08-07T16:22:33.640Z,17.98
2022-08-07T16:25:02.945Z,18.18
2022-08-07T16:27:40.033Z,18.89
2022-08-07T16:30:29.732Z,18.82
2022-08-07T16:32:54.939Z,19.21
2022-08-07T16:35:50.351Z,19.11
2022-08-07T16:38:09.368Z,18.87
2022-08-07T16:40:37.837Z,19.14
2022-08-07T16:43:24.100Z,20.07
2022-08-07T16:47:05.538Z,20.16
2022-08-07T16:50:20.518Z,19.95
2022-08-07T16:51:54.680Z,17.91
2022-08-07T16:54:32.573Z,19.01
2022-08-07T16:56:59.706Z,19.04
2022-08-07T16:59:26.071Z,18.68
2022-08-07T17:02:12.687Z,18.93
2022-08-07T17:04:57.989Z,18.46
2022-08-07T17:07:28.464Z,19.14
2022-08-07T17:10:32.596Z,19.23
2022-08-07T17:13:00.922Z,19.50
2022-08-07T17:15:44.684Z,19.16
2022-08-07T17:18:14.410Z,20.05
2022-08-07T17:20:41.237Z,20.50
2022-08-07T17:23:12.978Z,19.73
2022-08-07T17:25:51.252Z,19.48
2022-08-07T17:28:19.751Z,19.80
2022-08-07T17:30:57.495Z,19.44
2022-08-07T17:33:39.261Z,18.77
2022-08-07T17:36:11.996Z,18.79
2022-08-07T17:38:40.211Z,19.36
2022-08-07T17:42:03.009Z,19.42
2022-08-07T17:44:02.970Z,19.49
2022-08-07T17:46:34.429Z,19.40
2022-08-07T17:49:01.112Z,19.68
2022-08-07T17:52:00.110Z,20.02
2022-08-07T17:54:29.801Z,20.40
2022-08-07T17:57:18.684Z,20.19
2022-08-07T17:59:46.081Z,19.28
2022-08-07T18:02:17.446Z,19.92
2022-08-07T18:04:50.065Z,20.09
2022-08-07T18:07:23.489Z,20.25
2022-08-07T18:10:07.177Z,20.52
2022-08-07T18:12:36.956Z,20.52
2022-08-07T18:15:08.807Z,20.71
2022-08-07T18:18:45.764Z,21.17
2022-08-07T18:21:06.440Z,20.95
2022-08-07T18:23:42.747Z,20.54
2022-08-07T18:26:01.180Z,20.57
2022-08-07T18:28:35.597Z,20.07
2022-08-07T18:31:02.848Z,20.03
2022-08-07T18:33:29.531Z,19.82
2022-08-07T18:35:57.428Z,20.05
2022-08-07T18:38:55.183Z,20.57
2022-08-07T18:41:16.821Z,20.23
2022-08-07T18:43:48.989Z,20.38
2022-08-07T18:46:26.900Z,20.13
2022-08-07T18:50:19.686Z,20.21
2022-08-07T18:52:35.222Z,20.39
2022-08-07T18:54:31.449Z,20.39
2022-08-07T18:57:30.499Z,20.11
2022-08-07T18:59:58.639Z,20.48
2022-08-07T19:02:36.638Z,20.01
2022-08-07T19:05:14.897Z,19.78
2022-08-07T19:07:52.872Z,18.75
2022-08-07T19:10:23.986Z,18.78
2022-08-07T19:12:59.416Z,18.84
2022-08-07T19:16:03.055Z,19.10
2022-08-07T19:18:34.141Z,19.16
2022-08-07T19:21:09.603Z,19.00
2022-08-07T19:23:57.310Z,18.98
2022-08-07T19:26:28.704Z,19.04
2022-08-07T19:30:58.578Z,18.87
2022-08-07T19:32:07.759Z,19.16
2022-08-07T19:34:32.579Z,18.71
2022-08-07T19:37:09.909Z,18.77
2022-08-07T19:39:57.881Z,18.77
2022-08-07T19:42:30.243Z,18.74
2022-08-07T19:44:58.973Z,18.78
2022-08-07T19:47:27.848Z,18.37
2022-08-07T19:50:02.820Z,18.52
2022-08-07T19:52:30.817Z,18.74
2022-08-07T19:54:59.850Z,18.65
2022-08-07T19:58:01.511Z,18.54
2022-08-07T20:00:28.009Z,18.46
2022-08-07T20:02:55.677Z,17.54
2022-08-07T20:05:22.827Z,18.20
2022-08-07T20:07:50.897Z,17.98
2022-08-07T20:10:38.190Z,18.64
2022-08-07T20:13:06.126Z,18.56
2022-08-07T20:15:37.235Z,18.78
2022-08-07T20:18:04.398Z,19.15
2022-08-07T20:20:31.690Z,19.53
2022-08-07T20:22:59.395Z,18.55
2022-08-07T20:25:28.346Z,18.17
2022-08-07T20:28:03.371Z,18.38
2022-08-07T20:30:34.898Z,18.69
2022-08-07T20:33:01.657Z,19.05
2022-08-07T20:35:28.510Z,18.80
2022-08-07T20:37:58.636Z,18.45
2022-08-07T20:40:32.888Z,18.01
2022-08-07T20:43:01.083Z,18.37
2022-08-07T20:45:33.572Z,18.60
2022-08-07T20:48:28.946Z,17.30
2022-08-07T20:50:58.395Z,17.68
2022-08-07T20:54:03.244Z,17.74
2022-08-07T20:56:13.360Z,17.39
2022-08-07T20:58:42.690Z,16.79
2022-08-07T21:01:19.737Z,17.20
2022-08-07T21:04:13.121Z,17.11
2022-08-07T21:06:35.518Z,17.74
2022-08-07T21:09:02.255Z,18.28
2022-08-07T21:11:40.049Z,17.44
2022-08-07T21:14:31.674Z,16.79
2022-08-07T21:18:00.706Z,16.76
2022-08-07T21:19:51.406Z,17.14
2022-08-07T21:22:28.639Z,17.07
2022-08-07T21:24:55.408Z,17.10
2022-08-07T21:27:22.480Z,16.51
2022-08-07T21:29:53.093Z,17.01
2022-08-07T21:32:46.701Z,17.48
2022-08-07T21:35:11.305Z,18.08
2022-08-07T21:37:57.924Z,17.85
2022-08-07T21:40:24.644Z,17.29
2022-08-07T21:42:52.968Z,17.71
2022-08-07T21:46:04.872Z,17.80
2022-08-07T21:48:06.599Z,18.11
2022-08-07T21:50:53.062Z,17.67
2022-08-07T21:53:20.255Z,17.86
2022-08-07T21:55:49.122Z,17.63
2022-08-07T21:58:30.558Z,17.37
2022-08-07T22:00:59.717Z,17.63
2022-08-07T22:03:30.605Z,17.75
2022-08-07T22:05:58.292Z,17.51
2022-08-07T22:08:28.200Z,17.66
2022-08-07T22:10:55.021Z,18.06
2022-08-07T22:13:24.651Z,18.27
2022-08-07T22:16:40.142Z,18.26
2022-08-07T22:18:54.934Z,18.62
2022-08-07T22:21:21.594Z,18.41
2022-08-07T22:23:48.208Z,18.14
2022-08-07T22:26:14.641Z,18.12
2022-08-07T22:28:42.735Z,18.03
2022-08-07T22:31:45.270Z,18.11
2022-08-07T22:34:05.844Z,18.18
2022-08-07T22:36:39.366Z,18.51
2022-08-07T22:39:07.560Z,18.80
2022-08-07T22:42:04.201Z,18.99
2022-08-07T22:44:20.809Z,19.06
2022-08-07T22:47:04.051Z,18.63
2022-08-07T22:49:37.917Z,18.58
2022-08-07T22:52:04.507Z,18.84
2022-08-07T22:54:30.896Z,18.70
2022-08-07T22:57:00.730Z,18.51
2022-08-07T22:59:27.283Z,18.33
2022-08-07T23:02:00.504Z,18.20
2022-08-07T23:04:29.904Z,18.09
2022-08-07T23:06:57.392Z,18.31
2022-08-07T23:10:04.160Z,18.63
2022-08-07T23:12:10.854Z,18.19
2022-08-07T23:14:48.493Z,17.76
2022-08-07T23:17:15.905Z,18.04
2022-08-07T23:19:51.438Z,18.34
2022-08-07T23:22:19.062Z,18.09
2022-08-07T23:24:47.709Z,17.63
2022-08-07T23:27:14.338Z,17.93
2022-08-07T23:29:43.494Z,18.33
2022-08-07T23:34:21.309Z,18.17
2022-08-07T23:35:16.716Z,17.83
2022-08-07T23:38:00.727Z,17.69
2022-08-07T23:40:28.585Z,17.50
2022-08-07T23:42:54.984Z,17.96
2022-08-07T23:45:33.324Z,16.97
2022-08-07T23:48:08.442Z,16.87
2022-08-07T23:50:36.680Z,16.78
2022-08-07T23:53:06.092Z,16.97
2022-08-07T23:55:53.197Z,17.54
2022-08-07T23:58:24.245Z,17.50
